Time;durP1;ratioP1;P1;durP2;ratioP2;P2;SDS_P1;SDS_P2;PMS_P1;PMS_P2;Temp;Humidity;BMP_temperature;BMP_pressure;BME280_temperature;BME280_humidity;BME280_pressure;Samples;Min_cycle;Max_cycle;Signal;HPM_P1;HPM_P2
2023/06/05 00:01:43;;;;;;;9.57;8.68;;;8.90;99.90;;;;;;5072245;28;20484;-40
2023/06/05 00:04:09;;;;;;;11.15;9.57;;;8.90;99.90;;;;;;5072413;28;20052;-35
2023/06/05 00:06:37;;;;;;;9.27;8.35;;;8.80;99.90;;;;;;5073519;28;20059;-37
2023/06/05 00:09:06;;;;;;;11.30;8.95;;;8.80;99.90;;;;;;5073720;28;20054;-39
2023/06/05 00:11:32;;;;;;;10.63;8.07;;;8.80;99.90;;;;;;5072329;28;20500;-37
2023/06/05 00:13:58;;;;;;;9.80;8.27;;;8.70;99.90;;;;;;5070860;28;20051;-38
2023/06/05 00:16:24;;;;;;;9.57;8.68;;;8.70;99.90;;;;;;5071513;28;20097;-40
2023/06/05 00:18:50;;;;;;;10.48;8.77;;;8.70;99.90;;;;;;5073225;28;20394;-42
2023/06/05 00:21:16;;;;;;;9.80;8.85;;;8.60;99.90;;;;;;5072471;28;20614;-39
2023/06/05 00:23:42;;;;;;;8.27;7.43;;;8.60;99.90;;;;;;5072576;28;20048;-38
2023/06/05 00:26:07;;;;;;;9.65;7.50;;;8.50;99.90;;;;;;5073162;28;20052;-37
2023/06/05 00:28:33;;;;;;;9.43;8.05;;;8.50;99.90;;;;;;5072454;28;20055;-38
2023/06/05 00:31:00;;;;;;;9.18;8.20;;;8.50;99.90;;;;;;5073599;28;20499;-36
2023/06/05 00:33:26;;;;;;;9.70;8.80;;;8.60;99.90;;;;;;5075634;28;20056;-35
2023/06/05 00:35:52;;;;;;;11.82;9.57;;;8.60;99.90;;;;;;5074748;28;20064;-39
2023/06/05 00:38:18;;;;;;;11.20;9.32;;;8.70;99.90;;;;;;5060429;28;20040;-38
2023/06/05 00:40:44;;;;;;;12.65;10.65;;;8.70;99.90;;;;;;5068691;28;20054;-39
2023/06/05 00:43:10;;;;;;;11.95;10.52;;;8.80;99.90;;;;;;5065259;28;20060;-37
2023/06/05 00:45:35;;;;;;;14.45;11.63;;;8.80;99.90;;;;;;5075672;28;20519;-36
2023/06/05 00:48:02;;;;;;;11.05;9.35;;;8.90;99.90;;;;;;5076084;28;20070;-36
2023/06/05 00:50:31;;;;;;;11.20;10.07;;;8.90;99.90;;;;;;5069201;28;20051;-36
2023/06/05 00:52:56;;;;;;;13.52;11.05;;;9.00;99.90;;;;;;5073870;28;20052;-38
2023/06/05 00:55:22;;;;;;;12.13;10.90;;;9.10;99.90;;;;;;5075991;28;20424;-39
2023/06/05 00:57:48;;;;;;;12.40;10.48;;;9.20;99.90;;;;;;5075715;28;20836;-38
2023/06/05 01:00:14;;;;;;;14.57;11.07;;;9.30;99.90;;;;;;5074953;28;20044;-38
2023/06/05 01:02:40;;;;;;;14.05;10.90;;;9.30;99.90;;;;;;5073607;28;20181;-36
2023/06/05 01:05:07;;;;;;;12.05;10.73;;;9.40;99.90;;;;;;5075469;28;20048;-39
2023/06/05 01:07:34;;;;;;;12.95;10.60;;;9.40;99.90;;;;;;5075027;28;20051;-36
2023/06/05 01:10:05;;;;;;;12.38;11.18;;;9.50;99.90;;;;;;5073541;28;20052;-38
2023/06/05 01:12:40;;;;;;;10.98;9.88;;;9.50;99.90;;;;;;5074363;28;20485;-38
2023/06/05 01:15:07;;;;;;;11.77;10.57;;;9.60;99.90;;;;;;5075704;28;20210;-35
2023/06/05 01:17:33;;;;;;;13.13;10.55;;;9.60;99.90;;;;;;5073934;28;20057;-36
2023/06/05 01:20:04;;;;;;;12.57;10.88;;;9.60;99.90;;;;;;5075046;28;20644;-39
2023/06/05 01:22:30;;;;;;;13.95;11.40;;;9.70;99.90;;;;;;5074775;28;20090;-39
2023/06/05 01:24:57;;;;;;;12.55;11.27;;;9.70;99.90;;;;;;5075728;28;20480;-38
2023/06/05 01:27:48;;;;;;;11.98;10.45;;;9.70;99.90;;;;;;5075016;28;20063;-38
2023/06/05 01:31:01;;;;;;;12.05;10.63;;;9.70;99.90;;;;;;5074432;28;20079;-37
2023/06/05 01:33:41;;;;;;;12.45;10.07;;;9.80;99.90;;;;;;5031140;28;20059;-39
2023/06/05 01:36:11;;;;;;;11.25;9.95;;;9.70;99.90;;;;;;5030966;28;20132;-37
2023/06/05 01:38:38;;;;;;;11.98;9.50;;;9.80;99.90;;;;;;5000073;28;20088;-39
2023/06/05 01:41:05;;;;;;;11.73;10.48;;;9.80;99.90;;;;;;4994879;28;20061;-37
2023/06/05 01:43:32;;;;;;;10.50;9.43;;;9.90;99.90;;;;;;5013425;28;20566;-40
2023/06/05 01:45:59;;;;;;;14.75;10.00;;;9.90;99.90;;;;;;5031609;28;20052;-37
2023/06/05 01:48:27;;;;;;;11.02;9.40;;;9.90;99.90;;;;;;5027927;28;20600;-39
2023/06/05 01:50:58;;;;;;;12.95;10.20;;;10.00;99.90;;;;;;5021645;28;20599;-37
2023/06/05 01:53:24;;;;;;;12.23;9.18;;;10.00;99.90;;;;;;5030838;28;20119;-35
2023/06/05 01:55:53;;;;;;;13.80;9.98;;;10.00;99.90;;;;;;5015152;28;20044;-40
2023/06/05 01:58:21;;;;;;;10.93;9.75;;;10.10;99.90;;;;;;5031346;28;20057;-35
2023/06/05 02:00:46;;;;;;;12.27;9.88;;;10.10;99.90;;;;;;5021524;28;20274;-39
2023/06/05 02:03:15;;;;;;;10.88;9.15;;;10.10;99.90;;;;;;5014857;28;20053;-40
2023/06/05 02:05:42;;;;;;;14.05;9.70;;;10.10;99.90;;;;;;5064952;28;20048;-39
2023/06/05 02:08:09;;;;;;;10.75;9.38;;;10.10;99.90;;;;;;5074192;28;20463;-37
2023/06/05 02:10:35;;;;;;;12.18;9.23;;;10.20;99.90;;;;;;5073780;28;20089;-37
2023/06/05 02:13:01;;;;;;;10.80;9.40;;;10.20;99.90;;;;;;5073681;28;20040;-38
2023/06/05 02:15:28;;;;;;;13.57;9.10;;;10.20;99.90;;;;;;5074489;28;20116;-39
2023/06/05 02:17:54;;;;;;;10.60;9.27;;;10.30;99.90;;;;;;5074485;28;20047;-36
2023/06/05 02:20:23;;;;;;;14.82;9.20;;;10.30;99.90;;;;;;5072602;28;20210;-38
2023/06/05 02:22:51;;;;;;;13.15;10.13;;;10.30;99.90;;;;;;5073572;28;20097;-35
2023/06/05 02:25:18;;;;;;;9.90;8.70;;;10.40;99.90;;;;;;5073953;28;20051;-38
2023/06/05 02:27:44;;;;;;;10.57;8.82;;;10.50;99.90;;;;;;5074699;28;20619;-35
2023/06/05 02:30:11;;;;;;;9.55;8.60;;;10.40;99.90;;;;;;5074056;28;20557;-35
2023/06/05 02:32:41;;;;;;;10.65;8.57;;;10.50;99.90;;;;;;5074116;28;20040;-40
2023/06/05 02:35:08;;;;;;;10.60;9.55;;;10.50;99.90;;;;;;5074903;28;20698;-39
2023/06/05 02:37:37;;;;;;;10.55;9.55;;;10.60;99.90;;;;;;5062870;28;20044;-36
2023/06/05 02:40:07;;;;;;;10.55;9.45;;;10.60;99.90;;;;;;5062567;28;20051;-38
2023/06/05 02:42:34;;;;;;;10.30;9.20;;;10.60;99.90;;;;;;5070028;28;20060;-39
2023/06/05 02:45:00;;;;;;;9.65;8.65;;;10.60;99.90;;;;;;5069219;28;20051;-35
2023/06/05 02:47:25;;;;;;;10.88;8.52;;;10.60;99.90;;;;;;5074293;28;20048;-38
2023/06/05 02:49:51;;;;;;;11.68;8.45;;;10.70;99.90;;;;;;5065983;28;20045;-36
2023/06/05 02:52:17;;;;;;;11.05;9.07;;;10.60;99.90;;;;;;5073200;28;20040;-40
2023/06/05 02:54:42;;;;;;;11.32;9.00;;;10.60;99.90;;;;;;5073711;28;20052;-40
2023/06/05 02:57:08;;;;;;;10.82;8.43;;;10.70;99.90;;;;;;5074546;28;20348;-38
2023/06/05 02:59:39;;;;;;;9.93;8.75;;;10.60;99.90;;;;;;5073863;28;20137;-40
2023/06/05 03:02:06;;;;;;;10.18;8.32;;;10.60;99.90;;;;;;5073315;28;20461;-39
2023/06/05 03:04:32;;;;;;;8.85;7.95;;;10.60;99.90;;;;;;5073770;28;20509;-37
2023/06/05 03:06:59;;;;;;;10.40;8.05;;;10.60;99.90;;;;;;5074042;28;20482;-38
2023/06/05 03:09:24;;;;;;;10.07;8.70;;;10.60;99.90;;;;;;5072953;28;20052;-39
2023/06/05 03:11:50;;;;;;;8.57;7.78;;;10.60;99.90;;;;;;5072875;28;20464;-40
2023/06/05 03:14:16;;;;;;;10.52;8.05;;;10.60;99.90;;;;;;5073212;28;20444;-40
2023/06/05 03:16:43;;;;;;;8.57;7.38;;;10.60;99.90;;;;;;5072539;28;20052;-37
2023/06/05 03:19:10;;;;;;;8.80;7.70;;;10.70;99.90;;;;;;5072984;28;20059;-36
2023/06/05 03:21:37;;;;;;;8.05;7.20;;;10.60;99.90;;;;;;5072430;28;20288;-36
2023/06/05 03:24:05;;;;;;;9.40;8.02;;;10.70;99.90;;;;;;5072537;28;20129;-39
2023/06/05 03:26:32;;;;;;;8.18;7.38;;;10.70;99.90;;;;;;5073406;28;20519;-40
2023/06/05 03:28:58;;;;;;;10.50;8.43;;;10.70;99.90;;;;;;5072351;28;20052;-39
2023/06/05 03:31:23;;;;;;;9.07;8.13;;;10.70;99.90;;;;;;5073127;28;20051;-37
2023/06/05 03:33:49;;;;;;;12.52;8.98;;;10.70;99.90;;;;;;5072495;28;20040;-36
2023/06/05 03:36:17;;;;;;;11.38;9.75;;;10.70;99.90;;;;;;5071607;28;20047;-37
2023/06/05 03:38:43;;;;;;;12.18;10.07;;;10.80;99.90;;;;;;5059570;28;20048;-38
2023/06/05 03:41:09;;;;;;;11.00;9.30;;;10.80;99.90;;;;;;5072724;28;20124;-36
2023/06/05 03:43:35;;;;;;;11.02;9.65;;;10.80;99.90;;;;;;5064431;28;20481;-36
2023/06/05 03:46:00;;;;;;;11.70;9.88;;;10.90;99.90;;;;;;5072828;28;20043;-39
2023/06/05 03:48:26;;;;;;;11.30;10.15;;;10.90;99.90;;;;;;5072631;28;20062;-40
2023/06/05 03:50:53;;;;;;;12.00;9.65;;;10.90;99.90;;;;;;5064631;28;20563;-37
2023/06/05 03:53:19;;;;;;;13.25;10.68;;;10.90;99.90;;;;;;5072703;28;20047;-36
2023/06/05 03:55:46;;;;;;;13.95;10.63;;;10.90;99.90;;;;;;5073811;28;20044;-38
2023/06/05 03:58:13;;;;;;;13.30;10.07;;;10.90;99.90;;;;;;5072273;28;20051;-37
2023/06/05 04:00:44;;;;;;;12.43;10.27;;;10.90;99.90;;;;;;5070021;28;20040;-38
2023/06/05 04:03:11;;;;;;;11.10;10.00;;;11.00;99.90;;;;;;5056404;28;20107;-37
2023/06/05 04:05:38;;;;;;;10.88;9.13;;;10.90;99.90;;;;;;5059166;28;20044;-39
2023/06/05 04:08:04;;;;;;;11.18;9.60;;;11.00;99.90;;;;;;5086826;27;20605;-37
2023/06/05 04:10:30;;;;;;;9.82;8.15;;;11.00;99.90;;;;;;5067761;28;20044;-38
2023/06/05 04:12:56;;;;;;;9.88;8.27;;;11.10;99.90;;;;;;5076180;28;20129;-39
2023/06/05 04:15:23;;;;;;;8.10;7.10;;;11.20;99.90;;;;;;5076805;28;20048;-40
2023/06/05 04:17:49;;;;;;;7.80;6.60;;;11.20;99.90;;;;;;5076101;28;20048;-38
2023/06/05 04:20:15;;;;;;;8.30;5.75;;;11.30;99.90;;;;;;5076152;28;20411;-38
2023/06/05 04:22:42;;;;;;;8.48;7.25;;;11.30;99.90;;;;;;5076681;28;20412;-37
2023/06/05 04:25:10;;;;;;;8.43;5.68;;;11.30;99.90;;;;;;5075217;28;20121;-38
2023/06/05 04:27:40;;;;;;;7.95;6.15;;;11.40;99.90;;;;;;5077096;28;20357;-40
2023/06/05 04:30:07;;;;;;;7.18;5.40;;;11.50;99.90;;;;;;5074837;28;20055;-39
2023/06/05 04:32:38;;;;;;;6.35;5.07;;;11.50;99.90;;;;;;5075726;28;20490;-39
2023/06/05 04:35:04;;;;;;;6.70;5.97;;;11.60;99.90;;;;;;5074286;28;20070;-36
2023/06/05 04:37:29;;;;;;;7.10;5.43;;;11.70;99.90;;;;;;5066764;28;20407;-38
2023/06/05 04:39:55;;;;;;;8.43;6.20;;;11.70;99.90;;;;;;5061440;28;20056;-39
2023/06/05 04:42:21;;;;;;;7.72;5.75;;;11.80;99.90;;;;;;5074347;28;20090;-36
2023/06/05 04:45:04;;;;;;;5.60;5.00;;;11.90;99.90;;;;;;5069026;28;20047;-39
2023/06/05 04:47:31;;;;;;;5.20;4.70;;;12.00;99.90;;;;;;5075720;28;20058;-40
2023/06/05 04:50:05;;;;;;;5.10;4.30;;;12.10;99.90;;;;;;5068659;28;20097;-40
2023/06/05 04:52:32;;;;;;;5.72;4.85;;;12.20;99.90;;;;;;5074393;28;20051;-40
2023/06/05 04:55:02;;;;;;;6.70;5.22;;;12.20;99.90;;;;;;5075619;28;20047;-38
2023/06/05 04:57:29;;;;;;;5.68;5.07;;;12.30;99.90;;;;;;5075864;28;20052;-39
2023/06/05 04:59:55;;;;;;;5.75;5.07;;;12.30;99.90;;;;;;5075014;28;20048;-36
2023/06/05 05:02:21;;;;;;;6.05;4.43;;;12.40;99.90;;;;;;5075835;28;20114;-39
2023/06/05 05:04:47;;;;;;;4.68;4.22;;;12.40;99.90;;;;;;5075485;28;20466;-39
2023/06/05 05:07:16;;;;;;;6.55;4.38;;;12.50;99.90;;;;;;5076636;28;20116;-39
2023/06/05 05:09:46;;;;;;;7.03;5.25;;;12.60;99.90;;;;;;5074451;28;20578;-39
2023/06/05 05:12:11;;;;;;;5.28;4.53;;;12.60;99.90;;;;;;5076117;28;20479;-37
2023/06/05 05:14:39;;;;;;;4.22;3.80;;;12.60;99.90;;;;;;5074030;28;20048;-41
2023/06/05 05:17:05;;;;;;;4.65;4.25;;;12.70;99.90;;;;;;5075448;28;20332;-37
2023/06/05 05:19:31;;;;;;;5.53;3.88;;;12.80;99.90;;;;;;5074830;28;20044;-39
2023/06/05 05:21:57;;;;;;;4.95;4.10;;;12.80;99.90;;;;;;5075189;28;20320;-36
2023/06/05 05:24:24;;;;;;;6.45;4.50;;;12.90;99.90;;;;;;5075536;28;20172;-38
2023/06/05 05:26:51;;;;;;;8.07;4.05;;;13.10;99.90;;;;;;5075700;28;20566;-39
2023/06/05 05:29:16;;;;;;;5.13;4.07;;;13.00;99.90;;;;;;5074173;28;20056;-40
2023/06/05 05:31:43;;;;;;;5.60;4.45;;;13.10;99.90;;;;;;5074741;28;20463;-41
2023/06/05 05:34:08;;;;;;;6.90;4.60;;;13.00;99.90;;;;;;5074934;28;20560;-37
2023/06/05 05:36:36;;;;;;;7.93;4.82;;;13.20;99.90;;;;;;5070622;28;20037;-41
2023/06/05 05:39:02;;;;;;;5.07;3.65;;;13.20;99.90;;;;;;5056458;28;20472;-37
2023/06/05 05:41:28;;;;;;;4.80;3.72;;;13.10;99.90;;;;;;5074609;28;20052;-38
2023/06/05 05:43:54;;;;;;;5.07;3.78;;;13.20;99.90;;;;;;5066350;28;20112;-37
2023/06/05 05:46:19;;;;;;;4.30;3.90;;;13.20;99.90;;;;;;5075503;28;20051;-36
2023/06/05 05:48:45;;;;;;;5.45;3.80;;;13.20;99.90;;;;;;5075034;28;20059;-36
2023/06/05 05:51:11;;;;;;;4.53;3.67;;;13.30;99.90;;;;;;5068263;28;20322;-39
2023/06/05 05:53:36;;;;;;;5.55;3.85;;;13.50;99.90;;;;;;5074394;28;20048;-40
2023/06/05 05:56:05;;;;;;;5.03;4.15;;;13.60;99.90;;;;;;5074562;28;20080;-38
2023/06/05 05:58:34;;;;;;;8.00;4.07;;;13.60;99.90;;;;;;5074818;28;20570;-40
2023/06/05 06:01:00;;;;;;;7.00;4.53;;;13.50;99.90;;;;;;5073611;28;20135;-36
2023/06/05 06:03:26;;;;;;;7.07;4.95;;;13.40;99.90;;;;;;5075267;28;20044;-36
2023/06/05 06:05:53;;;;;;;5.43;4.00;;;13.50;99.90;;;;;;5074526;28;20059;-39
2023/06/05 06:08:18;;;;;;;7.18;4.40;;;13.70;99.90;;;;;;5074730;28;20130;-42
2023/06/05 06:10:45;;;;;;;5.32;3.80;;;13.70;99.90;;;;;;5074545;28;20052;-41
2023/06/05 06:13:11;;;;;;;4.10;3.70;;;13.90;99.90;;;;;;5075429;28;20131;-41
2023/06/05 06:15:38;;;;;;;4.60;3.55;;;13.90;99.90;;;;;;5073560;28;20047;-38
2023/06/05 06:18:05;;;;;;;5.15;3.00;;;14.10;99.90;;;;;;5075203;28;20139;-40
2023/06/05 06:20:33;;;;;;;3.65;3.17;;;14.10;99.90;;;;;;5073915;28;20098;-39
2023/06/05 06:22:59;;;;;;;3.25;2.85;;;14.10;99.90;;;;;;5073247;28;20439;-40
2023/06/05 06:25:28;;;;;;;5.00;2.75;;;14.30;99.90;;;;;;5073858;28;20143;-37
2023/06/05 06:27:54;;;;;;;5.43;2.70;;;14.50;99.90;;;;;;5073529;28;20048;-38
2023/06/05 06:30:21;;;;;;;4.88;3.00;;;14.80;99.90;;;;;;5072780;28;20146;-37
2023/06/05 06:32:47;;;;;;;5.90;3.20;;;15.10;99.90;;;;;;5074035;28;20048;-41
2023/06/05 06:35:13;;;;;;;3.50;3.00;;;15.40;99.90;;;;;;5074314;28;20067;-41
2023/06/05 06:37:40;;;;;;;3.90;2.45;;;15.70;99.90;;;;;;5062435;28;20071;-37
2023/06/05 06:40:09;;;;;;;3.10;2.80;;;16.10;99.90;;;;;;5061435;28;20039;-39
2023/06/05 06:42:35;;;;;;;5.00;3.40;;;16.50;99.90;;;;;;5070010;28;20048;-37
2023/06/05 06:45:01;;;;;;;4.38;3.15;;;17.50;99.90;;;;;;5084127;28;20047;-39
2023/06/05 06:47:27;;;;;;;4.10;2.55;;;19.10;99.90;;;;;;5073889;28;20340;-43
2023/06/05 06:49:53;;;;;;;3.45;2.70;;;20.60;99.90;;;;;;5067156;28;20589;-39
2023/06/05 06:52:20;;;;;;;3.47;2.85;;;21.10;99.90;;;;;;5071678;28;20048;-40
2023/06/05 06:54:46;;;;;;;3.60;2.67;;;21.40;99.90;;;;;;5073558;28;20578;-37
2023/06/05 06:57:12;;;;;;;11.02;3.40;;;21.90;99.90;;;;;;5073988;28;20108;-40
2023/06/05 06:59:40;;;;;;;4.57;2.70;;;22.50;99.40;;;;;;5072915;28;20088;-42
2023/06/05 07:02:18;;;;;;;4.85;2.72;;;23.20;99.00;;;;;;5072727;28;20418;-39
2023/06/05 07:04:44;;;;;;;4.30;2.67;;;24.00;97.50;;;;;;5071942;28;20060;-41
2023/06/05 07:07:14;;;;;;;4.43;2.80;;;24.60;96.20;;;;;;5073415;28;20052;-39
2023/06/05 07:09:42;;;;;;;3.35;2.53;;;24.70;94.50;;;;;;5073116;28;20048;-39
2023/06/05 07:12:12;;;;;;;3.33;2.33;;;25.10;95.40;;;;;;5073392;28;20048;-39
2023/06/05 07:14:39;;;;;;;3.40;3.00;;;25.20;94.50;;;;;;5073494;28;20047;-40
2023/06/05 07:17:05;;;;;;;4.93;2.70;;;25.40;94.60;;;;;;5073005;28;20055;-41
2023/06/05 07:19:32;;;;;;;2.55;2.33;;;25.40;92.60;;;;;;5071898;28;20165;-42
2023/06/05 07:21:59;;;;;;;3.38;2.72;;;24.60;93.30;;;;;;5072233;28;20040;-41
2023/06/05 07:24:26;;;;;;;3.45;2.60;;;23.80;94.40;;;;;;5072388;28;20395;-40
2023/06/05 07:26:55;;;;;;;2.95;2.40;;;23.10;95.20;;;;;;5071293;28;20392;-37
2023/06/05 07:29:24;;;;;;;2.80;2.38;;;22.40;94.90;;;;;;5072944;28;20390;-39
2023/06/05 07:31:51;;;;;;;3.67;2.60;;;22.20;95.30;;;;;;5071955;28;20426;-37
2023/06/05 07:34:21;;;;;;;3.03;2.28;;;22.10;95.80;;;;;;5072873;28;20127;-44
2023/06/05 07:36:48;;;;;;;4.18;2.80;;;21.90;95.60;;;;;;5070195;28;20048;-43
2023/06/05 07:39:15;;;;;;;3.75;3.20;;;21.30;96.30;;;;;;5067405;28;20056;-39
2023/06/05 07:41:41;;;;;;;4.03;2.90;;;21.20;96.30;;;;;;5068459;28;20044;-40
2023/06/05 07:44:11;;;;;;;3.28;2.55;;;21.00;96.70;;;;;;5060487;28;20051;-39
2023/06/05 07:46:39;;;;;;;3.38;2.50;;;21.10;97.20;;;;;;5064642;28;20071;-41
2023/06/05 07:49:05;;;;;;;3.55;2.72;;;20.90;97.90;;;;;;5061328;28;20311;-41
2023/06/05 07:51:35;;;;;;;3.80;2.88;;;21.10;97.60;;;;;;5065179;28;20658;-42
2023/06/05 07:54:11;;;;;;;3.95;3.17;;;21.10;97.60;;;;;;5072800;28;20101;-42
2023/06/05 07:56:38;;;;;;;5.20;2.70;;;21.10;97.80;;;;;;5069955;28;20056;-38
2023/06/05 07:59:04;;;;;;;4.50;3.25;;;20.90;97.60;;;;;;5071602;28;20044;-38
2023/06/05 08:01:31;;;;;;;3.95;3.13;;;20.80;98.50;;;;;;5072140;28;20044;-44
2023/06/05 08:03:57;;;;;;;3.67;3.13;;;21.10;98.10;;;;;;5072946;28;20047;-41
2023/06/05 08:06:26;;;;;;;4.10;2.88;;;21.20;98.30;;;;;;5069805;28;20140;-40
2023/06/05 08:08:51;;;;;;;4.32;3.55;;;20.30;97.80;;;;;;5071422;28;20051;-41
2023/06/05 08:11:17;;;;;;;3.50;3.20;;;19.90;98.00;;;;;;5071928;28;20456;-40
2023/06/05 08:13:43;;;;;;;3.45;2.85;;;19.80;98.20;;;;;;5071649;28;20516;-43
2023/06/05 08:16:09;;;;;;;3.90;3.30;;;20.00;98.80;;;;;;5072495;28;20120;-37
2023/06/05 08:18:35;;;;;;;3.53;3.22;;;20.10;99.00;;;;;;5072055;28;20381;-42
2023/06/05 08:21:01;;;;;;;3.65;3.15;;;20.40;98.60;;;;;;5072566;28;20140;-42
2023/06/05 08:23:27;;;;;;;3.50;3.03;;;20.30;98.60;;;;;;5072261;28;20052;-38
2023/06/05 08:25:53;;;;;;;5.22;3.42;;;19.80;97.70;;;;;;5070850;28;20059;-41
2023/06/05 08:28:19;;;;;;;4.25;3.30;;;19.90;98.90;;;;;;5072207;28;20144;-42
2023/06/05 08:30:45;;;;;;;3.80;2.97;;;20.00;98.40;;;;;;5072662;28;20131;-39
2023/06/05 08:33:11;;;;;;;5.57;3.50;;;20.00;98.70;;;;;;5071654;28;20039;-40
2023/06/05 08:35:40;;;;;;;4.57;2.90;;;19.70;98.30;;;;;;5072790;28;20048;-39
2023/06/05 08:38:06;;;;;;;4.25;3.60;;;20.00;98.70;;;;;;5096845;27;20371;-42
2023/06/05 08:40:33;;;;;;;6.60;3.70;;;19.90;98.70;;;;;;5068170;28;20044;-38
2023/06/05 08:43:02;;;;;;;5.47;3.30;;;19.70;99.40;;;;;;5068244;28;20044;-39
2023/06/05 08:45:30;;;;;;;4.55;3.53;;;20.00;98.50;;;;;;5071962;28;20067;-41
2023/06/05 08:47:59;;;;;;;6.18;3.83;;;20.00;98.90;;;;;;5072220;28;20054;-42
2023/06/05 08:50:27;;;;;;;4.70;3.60;;;20.00;99.60;;;;;;5068967;28;20147;-40
2023/06/05 08:52:58;;;;;;;6.43;3.80;;;19.80;99.10;;;;;;5073932;28;20040;-41
2023/06/05 08:55:24;;;;;;;5.60;4.30;;;20.30;99.60;;;;;;5074182;28;20486;-37
2023/06/05 08:57:51;;;;;;;5.28;3.95;;;20.50;99.20;;;;;;5095130;27;20078;-41
2023/06/05 09:00:17;;;;;;;5.53;4.43;;;20.10;98.50;;;;;;5075262;28;20036;-40
2023/06/05 09:02:47;;;;;;;9.68;5.07;;;19.70;99.50;;;;;;5073463;28;20459;-41
2023/06/05 09:05:16;;;;;;;5.22;4.28;;;19.70;99.70;;;;;;5074793;28;20507;-40
2023/06/05 09:07:43;;;;;;;6.75;5.28;;;20.10;99.90;;;;;;5075711;28;20050;-42
2023/06/05 09:10:28;;;;;;;4.80;4.25;;;20.30;99.90;;;;;;5074559;28;20051;-40
2023/06/05 09:12:58;;;;;;;6.03;4.40;;;20.20;99.90;;;;;;5074632;28;20040;-37
2023/06/05 09:15:29;;;;;;;5.65;4.00;;;19.70;99.70;;;;;;5074115;28;20113;-42
2023/06/05 09:18:08;;;;;;;5.55;5.00;;;20.00;99.90;;;;;;5069114;28;20035;-41
2023/06/05 09:20:36;;;;;;;10.88;5.22;;;19.80;99.90;;;;;;5058386;28;20052;-41
2023/06/05 09:23:02;;;;;;;10.38;4.53;;;20.10;99.80;;;;;;5063282;28;20052;-38
2023/06/05 09:25:48;;;;;;;5.50;4.10;;;20.20;99.90;;;;;;5088870;27;20416;-43
2023/06/05 09:28:17;;;;;;;6.30;4.63;;;20.40;99.70;;;;;;5064653;28;20170;-37
2023/06/05 09:31:00;;;;;;;5.07;4.20;;;20.50;99.70;;;;;;5074018;28;20052;-43
2023/06/05 09:33:32;;;;;;;7.55;5.13;;;20.50;99.40;;;;;;5070984;28;20047;-39
2023/06/05 09:36:08;;;;;;;8.10;5.20;;;20.50;99.60;;;;;;5074594;28;20437;-42
2023/06/05 09:38:34;;;;;;;7.93;5.63;;;20.20;99.20;;;;;;5071100;28;20069;-38
2023/06/05 09:41:07;;;;;;;6.95;5.22;;;20.10;99.90;;;;;;5072428;28;20477;-40
2023/06/05 09:43:34;;;;;;;5.32;4.20;;;20.30;99.90;;;;;;5073340;28;20237;-41
2023/06/05 09:46:07;;;;;;;7.40;5.10;;;20.40;99.90;;;;;;5074623;28;20048;-42
2023/06/05 09:48:32;;;;;;;7.32;5.80;;;20.20;99.20;;;;;;5073988;28;20391;-42
2023/06/05 09:51:08;;;;;;;6.03;4.68;;;20.40;99.00;;;;;;5074712;28;20898;-41
2023/06/05 09:53:36;;;;;;;9.30;4.93;;;20.40;99.30;;;;;;5073502;28;20435;-39
2023/06/05 09:56:02;;;;;;;7.53;4.50;;;20.50;99.80;;;;;;5072580;28;20456;-37
2023/06/05 09:58:28;;;;;;;5.90;4.88;;;20.50;99.70;;;;;;5072616;28;20055;-46
2023/06/05 10:00:59;;;;;;;5.18;4.55;;;20.20;98.60;;;;;;5073622;28;20044;-39
2023/06/05 10:03:27;;;;;;;7.35;5.07;;;20.40;99.50;;;;;;5071979;28;20050;-37
2023/06/05 10:05:53;;;;;;;5.82;4.90;;;20.20;99.50;;;;;;5096331;27;20051;-43
2023/06/05 10:08:19;;;;;;;6.75;4.90;;;20.50;99.70;;;;;;5072705;28;20500;-40
2023/06/05 10:10:44;;;;;;;6.22;4.28;;;20.50;99.40;;;;;;5068595;28;20758;-44
2023/06/05 10:13:11;;;;;;;5.22;4.50;;;20.60;99.30;;;;;;5068358;28;20692;-38
2023/06/05 10:15:38;;;;;;;5.28;4.70;;;20.60;99.00;;;;;;5067917;28;20144;-38
2023/06/05 10:18:05;;;;;;;8.13;4.90;;;20.30;98.80;;;;;;5070466;28;20463;-43
2023/06/05 10:20:32;;;;;;;5.38;4.70;;;20.40;99.00;;;;;;5073203;28;20106;-41
2023/06/05 10:22:58;;;;;;;5.70;4.60;;;20.60;99.40;;;;;;5071960;28;20044;-40
2023/06/05 10:25:24;;;;;;;8.13;4.20;;;20.80;99.50;;;;;;5072473;28;20568;-41
2023/06/05 10:28:25;;;;;;;6.90;4.90;;;20.90;99.50;;;;;;5074456;28;20050;-39
2023/06/05 10:31:18;;;;;;;6.32;5.22;;;20.80;99.40;;;;;;5074921;28;20048;-42
2023/06/05 10:33:53;;;;;;;5.13;4.50;;;20.50;99.00;;;;;;5058139;28;20073;-42
2023/06/05 10:36:54;;;;;;;8.57;5.30;;;20.60;98.70;;;;;;5063353;28;20140;-41
2023/06/05 10:39:25;;;;;;;9.00;5.13;;;20.40;99.20;;;;;;5054590;28;20289;-37
2023/06/05 10:41:51;;;;;;;5.25;4.75;;;20.60;98.90;;;;;;5091491;27;20130;-40
2023/06/05 10:44:17;;;;;;;5.70;4.95;;;20.80;99.10;;;;;;5046401;28;20060;-44
2023/06/05 10:46:42;;;;;;;8.07;5.72;;;20.80;99.40;;;;;;5060300;28;20056;-44
2023/06/05 10:49:19;;;;;;;6.85;5.28;;;21.00;99.90;;;;;;5063571;28;20229;-39
2023/06/05 10:51:49;;;;;;;6.43;5.60;;;20.60;99.50;;;;;;5068582;28;20591;-39
2023/06/05 10:54:38;;;;;;;8.43;5.82;;;20.30;99.10;;;;;;5071732;28;20055;-40
2023/06/05 10:57:07;;;;;;;5.82;5.32;;;20.50;99.80;;;;;;5054280;28;20396;-40
2023/06/05 10:59:37;;;;;;;9.02;5.85;;;20.60;99.40;;;;;;5070974;28;20117;-39
2023/06/05 11:02:09;;;;;;;7.32;5.53;;;20.60;99.80;;;;;;5072523;28;20129;-42
2023/06/05 11:04:46;;;;;;;7.63;5.72;;;20.60;99.60;;;;;;5073287;28;20052;-46
2023/06/05 11:07:16;;;;;;;7.03;5.88;;;20.80;99.90;;;;;;5073564;28;20496;-42
2023/06/05 11:10:22;;;;;;;6.30;5.70;;;20.70;99.90;;;;;;5073081;28;20071;-44
2023/06/05 11:12:51;;;;;;;8.63;5.60;;;20.90;99.90;;;;;;5072656;28;20044;-40
2023/06/05 11:15:38;;;;;;;5.82;5.32;;;21.00;99.90;;;;;;5073332;28;20471;-47
2023/06/05 11:18:25;;;;;;;7.22;5.70;;;21.00;99.90;;;;;;5068992;28;20039;-43
2023/06/05 11:20:52;;;;;;;8.18;5.93;;;21.10;99.90;;;;;;5072942;28;20108;-39
2023/06/05 11:23:17;;;;;;;7.55;5.70;;;20.70;99.60;;;;;;5071136;28;20067;-42
2023/06/05 11:25:44;;;;;;;6.45;5.82;;;20.90;99.90;;;;;;5073270;28;20491;-42
2023/06/05 11:28:11;;;;;;;6.80;6.07;;;20.90;99.90;;;;;;5072540;28;20089;-40
2023/06/05 11:30:45;;;;;;;6.00;5.40;;;20.70;99.70;;;;;;5072893;28;20058;-43
2023/06/05 11:33:13;;;;;;;6.55;5.78;;;20.60;99.90;;;;;;5073120;28;20044;-48
2023/06/05 11:35:41;;;;;;;6.15;5.50;;;20.80;99.90;;;;;;5060701;28;20051;-43
2023/06/05 11:38:11;;;;;;;5.82;5.32;;;20.90;99.90;;;;;;5058333;28;20447;-41
2023/06/05 11:40:37;;;;;;;6.32;5.32;;;20.80;99.90;;;;;;5066279;28;20090;-43
2023/06/05 11:43:07;;;;;;;12.30;6.13;;;20.80;99.40;;;;;;5065061;28;20048;-40
2023/06/05 11:45:35;;;;;;;10.32;6.28;;;20.70;99.90;;;;;;5072751;28;20626;-42
2023/06/05 11:48:11;;;;;;;8.07;6.10;;;20.60;99.90;;;;;;5065113;28;20099;-45
2023/06/05 11:50:39;;;;;;;6.03;5.38;;;20.70;99.90;;;;;;5061306;28;20557;-42
2023/06/05 11:53:10;;;;;;;6.75;6.03;;;20.80;99.90;;;;;;5072611;28;20353;-45
2023/06/05 11:58:28;;;;;;;6.57;5.88;;;20.70;99.90;;;;;;5071852;28;20528;-43
2023/06/05 12:01:17;;;;;;;10.73;5.78;;;20.50;99.90;;;;;;5070733;28;20052;-42
2023/06/05 12:03:44;;;;;;;6.40;5.80;;;20.50;99.90;;;;;;5063452;28;20660;-39
2023/06/05 12:06:14;;;;;;;6.90;6.20;;;20.50;99.90;;;;;;5070627;28;20044;-38
2023/06/05 12:08:40;;;;;;;6.13;5.45;;;20.70;99.90;;;;;;5054420;28;20492;-37
2023/06/05 12:11:27;;;;;;;6.55;5.80;;;20.80;99.90;;;;;;5060027;28;20833;-43
2023/06/05 12:13:54;;;;;;;7.35;5.45;;;20.90;99.90;;;;;;5065306;28;20063;-42
2023/06/05 12:16:31;;;;;;;8.43;6.07;;;20.80;99.90;;;;;;5062654;28;20670;-38
2023/06/05 12:18:57;;;;;;;5.68;5.00;;;21.00;99.90;;;;;;5056641;28;20167;-42
2023/06/05 12:21:24;;;;;;;8.38;5.65;;;21.10;99.90;;;;;;5090051;28;20479;-42
2023/06/05 12:23:50;;;;;;;5.30;4.80;;;20.80;99.90;;;;;;5061413;28;20147;-41
2023/06/05 12:26:16;;;;;;;6.82;5.55;;;20.90;99.90;;;;;;5070446;28;20058;-46
2023/06/05 12:28:44;;;;;;;7.97;5.93;;;20.80;99.90;;;;;;5075370;28;20087;-43
2023/06/05 12:31:30;;;;;;;6.05;5.45;;;20.90;99.90;;;;;;5075223;28;20052;-39
2023/06/05 12:33:56;;;;;;;6.85;6.15;;;20.90;99.90;;;;;;5074022;28;20293;-37
2023/06/05 12:36:22;;;;;;;6.82;5.78;;;21.00;99.90;;;;;;5073554;28;20045;-40
2023/06/05 12:38:48;;;;;;;7.18;5.50;;;20.90;99.90;;;;;;5072466;28;20571;-42
2023/06/05 12:41:13;;;;;;;7.63;4.95;;;20.70;99.90;;;;;;5071707;28;20056;-43
2023/06/05 12:43:39;;;;;;;7.70;5.50;;;20.70;99.90;;;;;;5067375;28;20135;-39
2023/06/05 12:46:07;;;;;;;6.00;5.15;;;20.70;99.90;;;;;;5075789;28;20584;-41
2023/06/05 12:48:33;;;;;;;6.40;5.38;;;20.60;99.90;;;;;;5074879;28;20072;-43
2023/06/05 12:50:59;;;;;;;6.95;5.40;;;20.70;99.90;;;;;;5068771;28;20419;-40
2023/06/05 12:53:25;;;;;;;5.60;4.97;;;20.70;99.90;;;;;;5075315;28;20040;-39
2023/06/05 12:55:50;;;;;;;5.32;4.72;;;20.40;99.90;;;;;;5074383;28;20411;-41